Adak, Alaska
Current Conditions -  °F | °C
As of 11:36 PM on Sunday 19 Oct 2014 (Local Time) from PADK Reporting Station
Overcast Overcast  
Wind Chill: 45°   Ceiling: 3400
Heat Index: 45°   Visibility: 10mi
Dew Point: 37°   Wind: 0mph
Humidity: 76%   Direction: NA
Pressure: 29.5"   Gusts: NA
Location:  51.88°N, 176.66°W
Report Text: PADK 200836Z AUTO 00000KT 10SM SCT028 OVC034 07/03 A2950 RMK AO1
Loading
Personal Weather Stations






























Interactive Weather Map
Tropical Storm Tracking
New forecast layout! Learn more

10-Day Weather Forecast

Advertisements
Track Severe Weather on mobile